sensor_id;sensor_type;location;lat;lon;timestamp;P1;durP1;ratioP1;P2;durP2;ratioP2
23634;SDS011;11994;51.038;16.974;2022-07-06T00:00:06;6.15;;;4.60;;
23634;SDS011;11994;51.038;16.974;2022-07-06T00:02:35;8.45;;;4.80;;
23634;SDS011;11994;51.038;16.974;2022-07-06T00:05:01;7.20;;;4.55;;
23634;SDS011;11994;51.038;16.974;2022-07-06T00:07:27;5.20;;;4.62;;
23634;SDS011;11994;51.038;16.974;2022-07-06T00:09:53;6.25;;;4.37;;
23634;SDS011;11994;51.038;16.974;2022-07-06T00:12:19;7.92;;;4.97;;
23634;SDS011;11994;51.038;16.974;2022-07-06T00:14:45;8.20;;;5.12;;
23634;SDS011;11994;51.038;16.974;2022-07-06T00:17:11;7.08;;;4.55;;
23634;SDS011;11994;51.038;16.974;2022-07-06T00:19:37;5.97;;;4.20;;
23634;SDS011;11994;51.038;16.974;2022-07-06T00:22:02;9.35;;;5.90;;
23634;SDS011;11994;51.038;16.974;2022-07-06T00:24:28;9.03;;;6.03;;
23634;SDS011;11994;51.038;16.974;2022-07-06T00:26:54;11.57;;;6.67;;
23634;SDS011;11994;51.038;16.974;2022-07-06T00:29:20;8.83;;;7.47;;
23634;SDS011;11994;51.038;16.974;2022-07-06T00:31:46;12.93;;;6.42;;
23634;SDS011;11994;51.038;16.974;2022-07-06T00:34:12;8.83;;;6.12;;
23634;SDS011;11994;51.038;16.974;2022-07-06T00:36:38;9.55;;;6.97;;
23634;SDS011;11994;51.038;16.974;2022-07-06T00:39:04;10.20;;;7.10;;
23634;SDS011;11994;51.038;16.974;2022-07-06T00:41:30;11.90;;;7.62;;
23634;SDS011;11994;51.038;16.974;2022-07-06T00:43:56;12.13;;;8.35;;
23634;SDS011;11994;51.038;16.974;2022-07-06T00:46:26;10.65;;;8.20;;
23634;SDS011;11994;51.038;16.974;2022-07-06T00:48:55;10.80;;;7.62;;
23634;SDS011;11994;51.038;16.974;2022-07-06T00:51:22;11.03;;;6.85;;
23634;SDS011;11994;51.038;16.974;2022-07-06T00:53:53;9.03;;;7.50;;
23634;SDS011;11994;51.038;16.974;2022-07-06T00:56:21;12.95;;;8.35;;
23634;SDS011;11994;51.038;16.974;2022-07-06T00:58:47;12.85;;;7.95;;
23634;SDS011;11994;51.038;16.974;2022-07-06T01:01:13;11.45;;;8.60;;
23634;SDS011;11994;51.038;16.974;2022-07-06T01:03:39;11.38;;;7.40;;
23634;SDS011;11994;51.038;16.974;2022-07-06T01:06:05;9.18;;;7.15;;
23634;SDS011;11994;51.038;16.974;2022-07-06T01:08:31;14.18;;;7.85;;
23634;SDS011;11994;51.038;16.974;2022-07-06T01:10:57;14.18;;;7.45;;
23634;SDS011;11994;51.038;16.974;2022-07-06T01:13:24;9.65;;;7.45;;
23634;SDS011;11994;51.038;16.974;2022-07-06T01:15:52;10.58;;;7.15;;
23634;SDS011;11994;51.038;16.974;2022-07-06T01:18:19;9.45;;;7.40;;
23634;SDS011;11994;51.038;16.974;2022-07-06T01:20:45;9.15;;;6.67;;
23634;SDS011;11994;51.038;16.974;2022-07-06T01:23:11;7.78;;;5.60;;
23634;SDS011;11994;51.038;16.974;2022-07-06T01:25:37;13.38;;;6.60;;
23634;SDS011;11994;51.038;16.974;2022-07-06T01:28:02;10.75;;;6.65;;
23634;SDS011;11994;51.038;16.974;2022-07-06T01:30:29;10.58;;;6.60;;
23634;SDS011;11994;51.038;16.974;2022-07-06T01:32:55;12.03;;;7.35;;
23634;SDS011;11994;51.038;16.974;2022-07-06T01:35:21;11.68;;;7.00;;
23634;SDS011;11994;51.038;16.974;2022-07-06T01:37:49;10.13;;;6.28;;
23634;SDS011;11994;51.038;16.974;2022-07-06T01:40:16;10.43;;;6.58;;
23634;SDS011;11994;51.038;16.974;2022-07-06T01:42:42;10.53;;;6.78;;
23634;SDS011;11994;51.038;16.974;2022-07-06T01:45:08;12.53;;;7.28;;
23634;SDS011;11994;51.038;16.974;2022-07-06T01:47:36;15.35;;;7.45;;
23634;SDS011;11994;51.038;16.974;2022-07-06T01:50:03;15.85;;;6.90;;
23634;SDS011;11994;51.038;16.974;2022-07-06T01:52:34;9.53;;;6.33;;
23634;SDS011;11994;51.038;16.974;2022-07-06T01:55:00;10.88;;;6.72;;
23634;SDS011;11994;51.038;16.974;2022-07-06T01:57:26;13.53;;;7.20;;
23634;SDS011;11994;51.038;16.974;2022-07-06T01:59:52;15.70;;;7.83;;
23634;SDS011;11994;51.038;16.974;2022-07-06T02:02:17;13.18;;;7.85;;
23634;SDS011;11994;51.038;16.974;2022-07-06T02:04:44;13.15;;;6.67;;
23634;SDS011;11994;51.038;16.974;2022-07-06T02:07:10;10.18;;;6.83;;
23634;SDS011;11994;51.038;16.974;2022-07-06T02:09:35;15.13;;;8.15;;
23634;SDS011;11994;51.038;16.974;2022-07-06T02:12:01;13.15;;;7.83;;
23634;SDS011;11994;51.038;16.974;2022-07-06T02:14:28;16.30;;;8.78;;
23634;SDS011;11994;51.038;16.974;2022-07-06T02:16:54;12.33;;;7.90;;
23634;SDS011;11994;51.038;16.974;2022-07-06T02:19:20;12.18;;;7.70;;
23634;SDS011;11994;51.038;16.974;2022-07-06T02:21:45;16.15;;;8.20;;
23634;SDS011;11994;51.038;16.974;2022-07-06T02:24:12;17.20;;;7.67;;
23634;SDS011;11994;51.038;16.974;2022-07-06T02:26:38;14.07;;;8.23;;
23634;SDS011;11994;51.038;16.974;2022-07-06T02:29:04;15.50;;;8.20;;
23634;SDS011;11994;51.038;16.974;2022-07-06T02:31:29;13.90;;;6.97;;
23634;SDS011;11994;51.038;16.974;2022-07-06T02:33:55;18.65;;;7.03;;
23634;SDS011;11994;51.038;16.974;2022-07-06T02:36:21;10.55;;;6.75;;
23634;SDS011;11994;51.038;16.974;2022-07-06T02:38:47;13.25;;;6.83;;
23634;SDS011;11994;51.038;16.974;2022-07-06T02:41:13;10.40;;;6.75;;
23634;SDS011;11994;51.038;16.974;2022-07-06T02:43:39;10.30;;;6.85;;
23634;SDS011;11994;51.038;16.974;2022-07-06T02:46:05;11.35;;;6.60;;
23634;SDS011;11994;51.038;16.974;2022-07-06T02:48:31;11.57;;;6.10;;
23634;SDS011;11994;51.038;16.974;2022-07-06T02:50:57;10.93;;;6.50;;
23634;SDS011;11994;51.038;16.974;2022-07-06T02:53:23;9.48;;;6.47;;
23634;SDS011;11994;51.038;16.974;2022-07-06T02:55:49;13.25;;;6.75;;
23634;SDS011;11994;51.038;16.974;2022-07-06T02:58:15;9.63;;;6.83;;
23634;SDS011;11994;51.038;16.974;2022-07-06T03:00:41;11.83;;;7.53;;
23634;SDS011;11994;51.038;16.974;2022-07-06T03:03:07;15.50;;;6.58;;
23634;SDS011;11994;51.038;16.974;2022-07-06T03:05:34;17.37;;;7.12;;
23634;SDS011;11994;51.038;16.974;2022-07-06T03:08:00;16.80;;;7.33;;
23634;SDS011;11994;51.038;16.974;2022-07-06T03:10:26;14.38;;;8.08;;
23634;SDS011;11994;51.038;16.974;2022-07-06T03:12:52;12.43;;;7.83;;
23634;SDS011;11994;51.038;16.974;2022-07-06T03:15:18;13.98;;;7.37;;
23634;SDS011;11994;51.038;16.974;2022-07-06T03:17:44;16.02;;;7.15;;
23634;SDS011;11994;51.038;16.974;2022-07-06T03:20:10;16.80;;;7.87;;
23634;SDS011;11994;51.038;16.974;2022-07-06T03:22:36;15.48;;;8.30;;
23634;SDS011;11994;51.038;16.974;2022-07-06T03:25:02;18.05;;;8.60;;
23634;SDS011;11994;51.038;16.974;2022-07-06T03:27:29;17.85;;;8.30;;
23634;SDS011;11994;51.038;16.974;2022-07-06T03:29:55;17.50;;;7.22;;
23634;SDS011;11994;51.038;16.974;2022-07-06T03:32:21;24.32;;;8.55;;
23634;SDS011;11994;51.038;16.974;2022-07-06T03:34:47;16.80;;;7.65;;
23634;SDS011;11994;51.038;16.974;2022-07-06T03:37:12;15.85;;;7.05;;
23634;SDS011;11994;51.038;16.974;2022-07-06T03:39:38;20.65;;;6.40;;
23634;SDS011;11994;51.038;16.974;2022-07-06T03:42:04;14.28;;;5.47;;
23634;SDS011;11994;51.038;16.974;2022-07-06T03:44:30;17.87;;;5.53;;
23634;SDS011;11994;51.038;16.974;2022-07-06T03:46:56;14.80;;;5.90;;
23634;SDS011;11994;51.038;16.974;2022-07-06T03:49:24;14.05;;;6.00;;
23634;SDS011;11994;51.038;16.974;2022-07-06T03:51:52;11.68;;;4.90;;
23634;SDS011;11994;51.038;16.974;2022-07-06T03:54:19;11.53;;;4.37;;
23634;SDS011;11994;51.038;16.974;2022-07-06T03:56:45;11.43;;;4.60;;
23634;SDS011;11994;51.038;16.974;2022-07-06T03:59:11;12.30;;;4.50;;
23634;SDS011;11994;51.038;16.974;2022-07-06T04:01:38;10.93;;;4.50;;
23634;SDS011;11994;51.038;16.974;2022-07-06T04:04:04;15.78;;;3.92;;
23634;SDS011;11994;51.038;16.974;2022-07-06T04:06:30;13.35;;;4.05;;
23634;SDS011;11994;51.038;16.974;2022-07-06T04:08:55;5.85;;;3.85;;
23634;SDS011;11994;51.038;16.974;2022-07-06T04:11:21;7.40;;;4.05;;
23634;SDS011;11994;51.038;16.974;2022-07-06T04:13:47;10.82;;;4.00;;
23634;SDS011;11994;51.038;16.974;2022-07-06T04:16:13;8.55;;;3.45;;
23634;SDS011;11994;51.038;16.974;2022-07-06T04:18:39;8.55;;;3.42;;
23634;SDS011;11994;51.038;16.974;2022-07-06T04:21:05;9.68;;;3.60;;
23634;SDS011;11994;51.038;16.974;2022-07-06T04:23:31;5.80;;;3.30;;
23634;SDS011;11994;51.038;16.974;2022-07-06T04:25:57;6.17;;;3.77;;
23634;SDS011;11994;51.038;16.974;2022-07-06T04:28:23;6.85;;;3.33;;
23634;SDS011;11994;51.038;16.974;2022-07-06T04:30:49;6.87;;;2.77;;
23634;SDS011;11994;51.038;16.974;2022-07-06T04:33:15;8.93;;;3.30;;
23634;SDS011;11994;51.038;16.974;2022-07-06T04:35:41;9.70;;;3.70;;
23634;SDS011;11994;51.038;16.974;2022-07-06T04:38:07;8.70;;;3.52;;
23634;SDS011;11994;51.038;16.974;2022-07-06T04:40:33;5.33;;;3.00;;
23634;SDS011;11994;51.038;16.974;2022-07-06T04:42:59;8.10;;;3.37;;
23634;SDS011;11994;51.038;16.974;2022-07-06T04:45:25;7.35;;;3.60;;
23634;SDS011;11994;51.038;16.974;2022-07-06T04:47:51;6.97;;;3.50;;
23634;SDS011;11994;51.038;16.974;2022-07-06T04:50:17;6.30;;;3.10;;
23634;SDS011;11994;51.038;16.974;2022-07-06T04:52:43;8.48;;;3.45;;
23634;SDS011;11994;51.038;16.974;2022-07-06T04:55:09;6.35;;;3.05;;
23634;SDS011;11994;51.038;16.974;2022-07-06T04:57:35;6.67;;;2.75;;
23634;SDS011;11994;51.038;16.974;2022-07-06T05:00:01;11.15;;;2.90;;
23634;SDS011;11994;51.038;16.974;2022-07-06T05:02:29;10.25;;;2.85;;
23634;SDS011;11994;51.038;16.974;2022-07-06T05:04:55;5.97;;;2.80;;
23634;SDS011;11994;51.038;16.974;2022-07-06T05:07:21;6.72;;;3.10;;
23634;SDS011;11994;51.038;16.974;2022-07-06T05:09:47;5.30;;;2.77;;
23634;SDS011;11994;51.038;16.974;2022-07-06T05:12:13;4.50;;;2.70;;
23634;SDS011;11994;51.038;16.974;2022-07-06T05:14:39;5.95;;;3.25;;
23634;SDS011;11994;51.038;16.974;2022-07-06T05:17:05;6.90;;;3.22;;
23634;SDS011;11994;51.038;16.974;2022-07-06T05:19:31;6.00;;;2.77;;
23634;SDS011;11994;51.038;16.974;2022-07-06T05:21:57;5.45;;;2.92;;
23634;SDS011;11994;51.038;16.974;2022-07-06T05:24:23;5.75;;;2.83;;
23634;SDS011;11994;51.038;16.974;2022-07-06T05:26:49;6.70;;;2.90;;
23634;SDS011;11994;51.038;16.974;2022-07-06T05:29:15;4.83;;;3.12;;
23634;SDS011;11994;51.038;16.974;2022-07-06T05:31:41;3.92;;;2.87;;
23634;SDS011;11994;51.038;16.974;2022-07-06T05:34:07;5.55;;;2.60;;
23634;SDS011;11994;51.038;16.974;2022-07-06T05:36:33;7.15;;;2.83;;
23634;SDS011;11994;51.038;16.974;2022-07-06T05:38:59;4.65;;;2.65;;
23634;SDS011;11994;51.038;16.974;2022-07-06T05:41:25;4.75;;;3.10;;
23634;SDS011;11994;51.038;16.974;2022-07-06T05:43:51;4.80;;;3.00;;
23634;SDS011;11994;51.038;16.974;2022-07-06T05:46:16;5.40;;;2.90;;
23634;SDS011;11994;51.038;16.974;2022-07-06T05:48:42;7.47;;;3.22;;
23634;SDS011;11994;51.038;16.974;2022-07-06T05:51:27;5.25;;;2.70;;
23634;SDS011;11994;51.038;16.974;2022-07-06T05:53:52;6.03;;;2.55;;
23634;SDS011;11994;51.038;16.974;2022-07-06T05:56:18;5.28;;;2.27;;
23634;SDS011;11994;51.038;16.974;2022-07-06T05:58:44;6.33;;;1.82;;
23634;SDS011;11994;51.038;16.974;2022-07-06T06:01:10;4.35;;;2.42;;
23634;SDS011;11994;51.038;16.974;2022-07-06T06:03:36;5.70;;;2.70;;
23634;SDS011;11994;51.038;16.974;2022-07-06T06:06:02;5.80;;;3.00;;
23634;SDS011;11994;51.038;16.974;2022-07-06T06:08:28;6.28;;;2.50;;
23634;SDS011;11994;51.038;16.974;2022-07-06T06:10:54;5.05;;;2.42;;
23634;SDS011;11994;51.038;16.974;2022-07-06T06:13:20;5.55;;;2.52;;
23634;SDS011;11994;51.038;16.974;2022-07-06T06:15:46;11.03;;;5.60;;
23634;SDS011;11994;51.038;16.974;2022-07-06T06:18:12;11.57;;;7.47;;
23634;SDS011;11994;51.038;16.974;2022-07-06T06:20:40;6.95;;;3.83;;
23634;SDS011;11994;51.038;16.974;2022-07-06T06:23:06;5.70;;;2.42;;
23634;SDS011;11994;51.038;16.974;2022-07-06T06:25:33;5.95;;;2.98;;
23634;SDS011;11994;51.038;16.974;2022-07-06T06:28:05;5.47;;;3.40;;
23634;SDS011;11994;51.038;16.974;2022-07-06T06:30:35;4.50;;;2.62;;
23634;SDS011;11994;51.038;16.974;2022-07-06T06:33:04;4.97;;;2.30;;
23634;SDS011;11994;51.038;16.974;2022-07-06T06:35:45;5.70;;;2.30;;
23634;SDS011;11994;51.038;16.974;2022-07-06T06:38:14;9.70;;;2.80;;
23634;SDS011;11994;51.038;16.974;2022-07-06T06:40:41;6.05;;;2.87;;
23634;SDS011;11994;51.038;16.974;2022-07-06T06:43:07;5.60;;;2.45;;
23634;SDS011;11994;51.038;16.974;2022-07-06T06:45:33;5.83;;;2.92;;
23634;SDS011;11994;51.038;16.974;2022-07-06T06:48:00;7.60;;;2.90;;
23634;SDS011;11994;51.038;16.974;2022-07-06T06:50:26;9.30;;;3.92;;
23634;SDS011;11994;51.038;16.974;2022-07-06T06:52:53;6.92;;;3.40;;
23634;SDS011;11994;51.038;16.974;2022-07-06T06:55:19;7.22;;;2.60;;
23634;SDS011;11994;51.038;16.974;2022-07-06T06:57:45;6.03;;;2.35;;
23634;SDS011;11994;51.038;16.974;2022-07-06T07:00:11;3.12;;;2.10;;
23634;SDS011;11994;51.038;16.974;2022-07-06T07:02:38;4.22;;;2.72;;
23634;SDS011;11994;51.038;16.974;2022-07-06T07:05:04;4.70;;;2.62;;
23634;SDS011;11994;51.038;16.974;2022-07-06T07:07:31;7.60;;;2.50;;
23634;SDS011;11994;51.038;16.974;2022-07-06T07:09:58;5.15;;;2.15;;
23634;SDS011;11994;51.038;16.974;2022-07-06T07:12:24;5.00;;;3.20;;
23634;SDS011;11994;51.038;16.974;2022-07-06T07:14:50;5.40;;;2.87;;
23634;SDS011;11994;51.038;16.974;2022-07-06T07:17:16;4.03;;;2.52;;
23634;SDS011;11994;51.038;16.974;2022-07-06T07:19:42;4.22;;;2.35;;
23634;SDS011;11994;51.038;16.974;2022-07-06T07:22:08;7.15;;;2.65;;
23634;SDS011;11994;51.038;16.974;2022-07-06T07:24:34;3.08;;;2.12;;
23634;SDS011;11994;51.038;16.974;2022-07-06T07:27:00;4.15;;;2.25;;
23634;SDS011;11994;51.038;16.974;2022-07-06T07:29:26;4.05;;;2.30;;
23634;SDS011;11994;51.038;16.974;2022-07-06T07:31:52;6.55;;;2.10;;
23634;SDS011;11994;51.038;16.974;2022-07-06T07:34:18;7.22;;;2.25;;
23634;SDS011;11994;51.038;16.974;2022-07-06T07:36:44;3.35;;;2.05;;
23634;SDS011;11994;51.038;16.974;2022-07-06T07:39:10;4.55;;;2.30;;
23634;SDS011;11994;51.038;16.974;2022-07-06T07:41:36;7.28;;;2.30;;
23634;SDS011;11994;51.038;16.974;2022-07-06T07:44:02;4.08;;;2.00;;
23634;SDS011;11994;51.038;16.974;2022-07-06T07:46:28;5.55;;;2.10;;
23634;SDS011;11994;51.038;16.974;2022-07-06T07:48:54;4.30;;;2.20;;
23634;SDS011;11994;51.038;16.974;2022-07-06T07:51:20;5.85;;;2.70;;
23634;SDS011;11994;51.038;16.974;2022-07-06T07:53:46;5.22;;;2.60;;
23634;SDS011;11994;51.038;16.974;2022-07-06T07:56:12;3.90;;;2.33;;
23634;SDS011;11994;51.038;16.974;2022-07-06T07:58:38;3.50;;;1.95;;
23634;SDS011;11994;51.038;16.974;2022-07-06T08:01:04;3.58;;;1.98;;
23634;SDS011;11994;51.038;16.974;2022-07-06T08:03:30;7.28;;;1.77;;
23634;SDS011;11994;51.038;16.974;2022-07-06T08:05:57;4.78;;;2.12;;
23634;SDS011;11994;51.038;16.974;2022-07-06T08:08:24;5.65;;;2.22;;
23634;SDS011;11994;51.038;16.974;2022-07-06T08:10:50;3.62;;;2.30;;
23634;SDS011;11994;51.038;16.974;2022-07-06T08:13:16;4.65;;;2.00;;
23634;SDS011;11994;51.038;16.974;2022-07-06T08:15:42;7.10;;;2.20;;
23634;SDS011;11994;51.038;16.974;2022-07-06T08:18:08;4.37;;;1.90;;
23634;SDS011;11994;51.038;16.974;2022-07-06T08:20:36;3.62;;;2.15;;
23634;SDS011;11994;51.038;16.974;2022-07-06T08:23:03;3.62;;;1.87;;
23634;SDS011;11994;51.038;16.974;2022-07-06T08:25:29;5.72;;;2.55;;
23634;SDS011;11994;51.038;16.974;2022-07-06T08:27:56;3.25;;;1.80;;
23634;SDS011;11994;51.038;16.974;2022-07-06T08:30:23;4.03;;;2.30;;
23634;SDS011;11994;51.038;16.974;2022-07-06T08:32:49;4.28;;;2.40;;
23634;SDS011;11994;51.038;16.974;2022-07-06T08:35:15;4.75;;;2.10;;
23634;SDS011;11994;51.038;16.974;2022-07-06T08:37:41;5.53;;;1.90;;
23634;SDS011;11994;51.038;16.974;2022-07-06T08:40:09;7.00;;;1.90;;
23634;SDS011;11994;51.038;16.974;2022-07-06T08:42:36;5.22;;;2.08;;
23634;SDS011;11994;51.038;16.974;2022-07-06T08:45:03;3.02;;;1.62;;
23634;SDS011;11994;51.038;16.974;2022-07-06T08:47:32;8.25;;;2.25;;
23634;SDS011;11994;51.038;16.974;2022-07-06T08:50:02;4.90;;;1.90;;
23634;SDS011;11994;51.038;16.974;2022-07-06T08:52:30;4.33;;;1.98;;
23634;SDS011;11994;51.038;16.974;2022-07-06T08:54:57;3.80;;;1.80;;
23634;SDS011;11994;51.038;16.974;2022-07-06T08:57:24;3.75;;;2.00;;
23634;SDS011;11994;51.038;16.974;2022-07-06T08:59:52;6.25;;;1.90;;
23634;SDS011;11994;51.038;16.974;2022-07-06T09:02:18;4.72;;;1.70;;
23634;SDS011;11994;51.038;16.974;2022-07-06T09:04:48;5.25;;;2.00;;
23634;SDS011;11994;51.038;16.974;2022-07-06T09:07:17;7.03;;;1.82;;
23634;SDS011;11994;51.038;16.974;2022-07-06T09:09:43;3.95;;;1.57;;
23634;SDS011;11994;51.038;16.974;2022-07-06T09:12:15;5.25;;;1.80;;
23634;SDS011;11994;51.038;16.974;2022-07-06T09:14:38;5.05;;;2.05;;
23634;SDS011;11994;51.038;16.974;2022-07-06T09:17:05;3.47;;;1.62;;
23634;SDS011;11994;51.038;16.974;2022-07-06T09:19:32;4.90;;;1.92;;
23634;SDS011;11994;51.038;16.974;2022-07-06T09:22:00;3.33;;;1.80;;
23634;SDS011;11994;51.038;16.974;2022-07-06T09:24:27;5.42;;;1.87;;
23634;SDS011;11994;51.038;16.974;2022-07-06T09:26:57;4.58;;;2.00;;
23634;SDS011;11994;51.038;16.974;2022-07-06T09:29:30;4.28;;;2.00;;
23634;SDS011;11994;51.038;16.974;2022-07-06T09:31:58;6.55;;;2.00;;
23634;SDS011;11994;51.038;16.974;2022-07-06T09:34:30;8.00;;;2.40;;
23634;SDS011;11994;51.038;16.974;2022-07-06T09:37:07;4.60;;;1.92;;
23634;SDS011;11994;51.038;16.974;2022-07-06T09:39:34;6.33;;;2.02;;
23634;SDS011;11994;51.038;16.974;2022-07-06T09:42:01;6.03;;;2.00;;
23634;SDS011;11994;51.038;16.974;2022-07-06T09:44:31;6.92;;;1.90;;
23634;SDS011;11994;51.038;16.974;2022-07-06T09:46:59;6.33;;;2.25;;
23634;SDS011;11994;51.038;16.974;2022-07-06T09:49:28;7.58;;;2.35;;
23634;SDS011;11994;51.038;16.974;2022-07-06T09:51:55;6.45;;;1.72;;
23634;SDS011;11994;51.038;16.974;2022-07-06T09:54:24;3.70;;;1.85;;
23634;SDS011;11994;51.038;16.974;2022-07-06T09:56:51;2.47;;;1.70;;
23634;SDS011;11994;51.038;16.974;2022-07-06T09:59:20;3.58;;;1.80;;
23634;SDS011;11994;51.038;16.974;2022-07-06T10:01:52;6.58;;;2.40;;
23634;SDS011;11994;51.038;16.974;2022-07-06T10:04:24;6.70;;;1.67;;
23634;SDS011;11994;51.038;16.974;2022-07-06T10:06:52;6.50;;;1.57;;
23634;SDS011;11994;51.038;16.974;2022-07-06T10:09:20;7.67;;;1.40;;
23634;SDS011;11994;51.038;16.974;2022-07-06T10:11:51;2.72;;;1.20;;
23634;SDS011;11994;51.038;16.974;2022-07-06T10:14:25;3.65;;;1.22;;
23634;SDS011;11994;51.038;16.974;2022-07-06T10:16:55;3.00;;;1.40;;
23634;SDS011;11994;51.038;16.974;2022-07-06T10:19:23;3.42;;;1.52;;
23634;SDS011;11994;51.038;16.974;2022-07-06T10:21:50;5.05;;;1.40;;
23634;SDS011;11994;51.038;16.974;2022-07-06T10:24:19;3.62;;;1.10;;
23634;SDS011;11994;51.038;16.974;2022-07-06T10:26:46;2.40;;;1.10;;
23634;SDS011;11994;51.038;16.974;2022-07-06T10:29:14;3.12;;;1.10;;
23634;SDS011;11994;51.038;16.974;2022-07-06T10:31:40;3.87;;;1.55;;
23634;SDS011;11994;51.038;16.974;2022-07-06T10:34:14;2.67;;;1.22;;
23634;SDS011;11994;51.038;16.974;2022-07-06T10:36:43;6.70;;;1.70;;
23634;SDS011;11994;51.038;16.974;2022-07-06T10:39:16;2.65;;;1.17;;
23634;SDS011;11994;51.038;16.974;2022-07-06T10:47:36;4.60;;;1.20;;
23634;SDS011;11994;51.038;16.974;2022-07-06T10:50:03;5.83;;;1.42;;
23634;SDS011;11994;51.038;16.974;2022-07-06T10:52:52;4.05;;;1.00;;
23634;SDS011;11994;51.038;16.974;2022-07-06T10:55:33;3.00;;;1.07;;
23634;SDS011;11994;51.038;16.974;2022-07-06T10:58:02;3.35;;;1.30;;
23634;SDS011;11994;51.038;16.974;2022-07-06T11:03:29;3.22;;;1.40;;
23634;SDS011;11994;51.038;16.974;2022-07-06T11:06:12;2.45;;;0.98;;
23634;SDS011;11994;51.038;16.974;2022-07-06T11:11:24;6.30;;;1.52;;
23634;SDS011;11994;51.038;16.974;2022-07-06T11:19:14;3.12;;;1.20;;
23634;SDS011;11994;51.038;16.974;2022-07-06T11:24:26;3.60;;;1.27;;
23634;SDS011;11994;51.038;16.974;2022-07-06T11:26:55;2.98;;;1.42;;
23634;SDS011;11994;51.038;16.974;2022-07-06T11:29:25;3.42;;;1.60;;
23634;SDS011;11994;51.038;16.974;2022-07-06T11:31:58;5.75;;;1.50;;
23634;SDS011;11994;51.038;16.974;2022-07-06T11:34:25;11.05;;;2.45;;
23634;SDS011;11994;51.038;16.974;2022-07-06T11:36:54;3.72;;;1.32;;
23634;SDS011;11994;51.038;16.974;2022-07-06T11:39:27;2.58;;;1.22;;
23634;SDS011;11994;51.038;16.974;2022-07-06T11:41:55;2.80;;;1.30;;
23634;SDS011;11994;51.038;16.974;2022-07-06T11:44:22;4.92;;;1.30;;
23634;SDS011;11994;51.038;16.974;2022-07-06T11:46:48;3.70;;;1.30;;
23634;SDS011;11994;51.038;16.974;2022-07-06T11:49:15;3.92;;;1.40;;
23634;SDS011;11994;51.038;16.974;2022-07-06T11:51:41;4.30;;;1.15;;
23634;SDS011;11994;51.038;16.974;2022-07-06T11:54:13;4.08;;;1.55;;
23634;SDS011;11994;51.038;16.974;2022-07-06T11:56:49;3.72;;;1.55;;
23634;SDS011;11994;51.038;16.974;2022-07-06T11:59:22;6.12;;;1.60;;
23634;SDS011;11994;51.038;16.974;2022-07-06T12:01:58;4.78;;;1.20;;
23634;SDS011;11994;51.038;16.974;2022-07-06T12:04:31;4.45;;;1.10;;
23634;SDS011;11994;51.038;16.974;2022-07-06T12:07:00;6.47;;;1.30;;
23634;SDS011;11994;51.038;16.974;2022-07-06T12:09:36;5.45;;;1.42;;
23634;SDS011;11994;51.038;16.974;2022-07-06T12:12:04;6.75;;;1.47;;
23634;SDS011;11994;51.038;16.974;2022-07-06T12:14:32;5.10;;;1.30;;
23634;SDS011;11994;51.038;16.974;2022-07-06T12:17:09;5.55;;;1.25;;
23634;SDS011;11994;51.038;16.974;2022-07-06T12:19:35;5.03;;;1.12;;
23634;SDS011;11994;51.038;16.974;2022-07-06T12:22:04;7.08;;;1.20;;
23634;SDS011;11994;51.038;16.974;2022-07-06T12:24:32;4.08;;;1.40;;
23634;SDS011;11994;51.038;16.974;2022-07-06T12:27:15;4.78;;;0.98;;
23634;SDS011;11994;51.038;16.974;2022-07-06T12:29:43;4.80;;;1.00;;
23634;SDS011;11994;51.038;16.974;2022-07-06T12:32:17;5.10;;;1.32;;
23634;SDS011;11994;51.038;16.974;2022-07-06T12:37:33;9.08;;;1.17;;
23634;SDS011;11994;51.038;16.974;2022-07-06T12:39:59;2.60;;;0.78;;
23634;SDS011;11994;51.038;16.974;2022-07-06T12:42:26;3.33;;;1.10;;
23634;SDS011;11994;51.038;16.974;2022-07-06T12:44:53;4.12;;;0.95;;
23634;SDS011;11994;51.038;16.974;2022-07-06T12:47:20;2.27;;;0.80;;
23634;SDS011;11994;51.038;16.974;2022-07-06T12:49:49;3.02;;;0.80;;
23634;SDS011;11994;51.038;16.974;2022-07-06T12:52:30;3.83;;;0.98;;
23634;SDS011;11994;51.038;16.974;2022-07-06T12:54:59;1.87;;;0.70;;
23634;SDS011;11994;51.038;16.974;2022-07-06T12:57:25;2.50;;;0.80;;
23634;SDS011;11994;51.038;16.974;2022-07-06T13:02:34;2.87;;;0.70;;
23634;SDS011;11994;51.038;16.974;2022-07-06T13:05:04;3.33;;;1.00;;
23634;SDS011;11994;51.038;16.974;2022-07-06T13:07:33;5.30;;;1.30;;
23634;SDS011;11994;51.038;16.974;2022-07-06T13:10:06;3.17;;;1.00;;
23634;SDS011;11994;51.038;16.974;2022-07-06T13:12:32;3.67;;;0.93;;
23634;SDS011;11994;51.038;16.974;2022-07-06T13:14:58;3.75;;;0.98;;
23634;SDS011;11994;51.038;16.974;2022-07-06T13:17:24;3.67;;;0.95;;
23634;SDS011;11994;51.038;16.974;2022-07-06T13:19:50;4.42;;;1.10;;
23634;SDS011;11994;51.038;16.974;2022-07-06T13:22:17;2.17;;;0.78;;
23634;SDS011;11994;51.038;16.974;2022-07-06T13:24:43;5.85;;;1.20;;
23634;SDS011;11994;51.038;16.974;2022-07-06T13:27:09;4.87;;;1.10;;
23634;SDS011;11994;51.038;16.974;2022-07-06T13:29:36;2.80;;;0.90;;
23634;SDS011;11994;51.038;16.974;2022-07-06T13:32:02;4.28;;;1.15;;
23634;SDS011;11994;51.038;16.974;2022-07-06T13:34:30;6.03;;;1.12;;
23634;SDS011;11994;51.038;16.974;2022-07-06T13:36:57;2.62;;;0.98;;
23634;SDS011;11994;51.038;16.974;2022-07-06T13:39:23;2.90;;;0.72;;
23634;SDS011;11994;51.038;16.974;2022-07-06T13:41:49;3.30;;;1.00;;
23634;SDS011;11994;51.038;16.974;2022-07-06T13:44:15;3.30;;;0.90;;
23634;SDS011;11994;51.038;16.974;2022-07-06T13:46:41;3.15;;;0.90;;
23634;SDS011;11994;51.038;16.974;2022-07-06T13:49:10;2.65;;;1.10;;
23634;SDS011;11994;51.038;16.974;2022-07-06T13:51:36;6.67;;;1.32;;
23634;SDS011;11994;51.038;16.974;2022-07-06T13:54:02;3.87;;;1.00;;
23634;SDS011;11994;51.038;16.974;2022-07-06T13:56:28;2.20;;;0.80;;
23634;SDS011;11994;51.038;16.974;2022-07-06T13:58:55;3.72;;;1.00;;
23634;SDS011;11994;51.038;16.974;2022-07-06T14:01:21;2.08;;;0.90;;
23634;SDS011;11994;51.038;16.974;2022-07-06T14:03:47;3.77;;;1.00;;
23634;SDS011;11994;51.038;16.974;2022-07-06T14:06:13;4.70;;;1.27;;
23634;SDS011;11994;51.038;16.974;2022-07-06T14:08:41;4.40;;;1.00;;
23634;SDS011;11994;51.038;16.974;2022-07-06T14:11:08;5.35;;;0.80;;
23634;SDS011;11994;51.038;16.974;2022-07-06T14:13:35;3.35;;;0.80;;
23634;SDS011;11994;51.038;16.974;2022-07-06T14:16:03;4.85;;;0.82;;
23634;SDS011;11994;51.038;16.974;2022-07-06T14:18:30;3.33;;;0.80;;
23634;SDS011;11994;51.038;16.974;2022-07-06T14:20:56;4.33;;;0.82;;
23634;SDS011;11994;51.038;16.974;2022-07-06T14:23:23;3.30;;;1.00;;
23634;SDS011;11994;51.038;16.974;2022-07-06T14:25:49;4.05;;;1.05;;
23634;SDS011;11994;51.038;16.974;2022-07-06T14:28:16;2.55;;;1.15;;
23634;SDS011;11994;51.038;16.974;2022-07-06T14:30:43;3.52;;;1.20;;
23634;SDS011;11994;51.038;16.974;2022-07-06T14:33:10;3.00;;;1.10;;
23634;SDS011;11994;51.038;16.974;2022-07-06T14:35:41;4.73;;;1.30;;
23634;SDS011;11994;51.038;16.974;2022-07-06T14:38:10;4.85;;;1.32;;
23634;SDS011;11994;51.038;16.974;2022-07-06T14:40:36;3.15;;;1.00;;
23634;SDS011;11994;51.038;16.974;2022-07-06T14:43:03;2.42;;;1.20;;
23634;SDS011;11994;51.038;16.974;2022-07-06T14:45:29;5.00;;;1.22;;
23634;SDS011;11994;51.038;16.974;2022-07-06T14:47:56;2.45;;;1.10;;
23634;SDS011;11994;51.038;16.974;2022-07-06T14:50:22;6.15;;;1.37;;
23634;SDS011;11994;51.038;16.974;2022-07-06T14:52:49;4.50;;;1.30;;
23634;SDS011;11994;51.038;16.974;2022-07-06T14:55:18;4.03;;;1.50;;